sensor_id;sensor_type;location;lat;lon;timestamp;temperature;humidity
48998;DHT22;34807;51.456;7.244;2023-02-13T00:01:53;6.90;99.90
48998;DHT22;34807;51.456;7.244;2023-02-13T00:04:18;6.90;99.90
48998;DHT22;34807;51.456;7.244;2023-02-13T00:06:44;6.90;99.90
48998;DHT22;34807;51.456;7.244;2023-02-13T00:09:12;6.90;99.90
48998;DHT22;34807;51.456;7.244;2023-02-13T00:11:37;6.90;99.90
48998;DHT22;34807;51.456;7.244;2023-02-13T00:14:03;6.90;99.90
48998;DHT22;34807;51.456;7.244;2023-02-13T00:16:28;6.90;99.90
48998;DHT22;34807;51.456;7.244;2023-02-13T00:18:54;6.90;99.90
48998;DHT22;34807;51.456;7.244;2023-02-13T00:21:19;6.90;99.90
48998;DHT22;34807;51.456;7.244;2023-02-13T00:23:45;6.90;99.90
48998;DHT22;34807;51.456;7.244;2023-02-13T00:26:11;6.90;99.90
48998;DHT22;34807;51.456;7.244;2023-02-13T00:28:37;6.90;99.90
48998;DHT22;34807;51.456;7.244;2023-02-13T00:31:12;6.90;99.90
48998;DHT22;34807;51.456;7.244;2023-02-13T00:33:38;6.90;99.90
48998;DHT22;34807;51.456;7.244;2023-02-13T00:36:15;6.90;99.90
48998;DHT22;34807;51.456;7.244;2023-02-13T00:38:41;6.90;99.90
48998;DHT22;34807;51.456;7.244;2023-02-13T00:41:07;6.80;99.90
48998;DHT22;34807;51.456;7.244;2023-02-13T00:43:33;6.80;99.90
48998;DHT22;34807;51.456;7.244;2023-02-13T00:45:59;6.90;99.90
48998;DHT22;34807;51.456;7.244;2023-02-13T00:48:25;6.80;99.90
48998;DHT22;34807;51.456;7.244;2023-02-13T00:50:51;6.80;99.90
48998;DHT22;34807;51.456;7.244;2023-02-13T00:53:17;6.80;99.90
48998;DHT22;34807;51.456;7.244;2023-02-13T00:55:42;6.80;99.90
48998;DHT22;34807;51.456;7.244;2023-02-13T00:58:08;6.80;99.90
48998;DHT22;34807;51.456;7.244;2023-02-13T01:00:33;6.80;99.90
48998;DHT22;34807;51.456;7.244;2023-02-13T01:02:59;6.80;99.90
48998;DHT22;34807;51.456;7.244;2023-02-13T01:05:24;6.80;99.90
48998;DHT22;34807;51.456;7.244;2023-02-13T01:07:52;6.80;99.90
48998;DHT22;34807;51.456;7.244;2023-02-13T01:10:17;6.80;99.90
48998;DHT22;34807;51.456;7.244;2023-02-13T01:12:43;6.80;99.90
48998;DHT22;34807;51.456;7.244;2023-02-13T01:15:08;6.80;99.90
48998;DHT22;34807;51.456;7.244;2023-02-13T01:17:34;6.80;99.90
48998;DHT22;34807;51.456;7.244;2023-02-13T01:19:59;6.80;99.90
48998;DHT22;34807;51.456;7.244;2023-02-13T01:22:25;6.80;99.90
48998;DHT22;34807;51.456;7.244;2023-02-13T01:24:50;6.80;99.90
48998;DHT22;34807;51.456;7.244;2023-02-13T01:27:16;6.80;99.90
48998;DHT22;34807;51.456;7.244;2023-02-13T01:29:41;6.80;99.90
48998;DHT22;34807;51.456;7.244;2023-02-13T01:32:07;6.80;99.90
48998;DHT22;34807;51.456;7.244;2023-02-13T01:34:32;6.80;99.90
48998;DHT22;34807;51.456;7.244;2023-02-13T01:36:58;6.80;99.90
48998;DHT22;34807;51.456;7.244;2023-02-13T01:39:24;6.80;99.90
48998;DHT22;34807;51.456;7.244;2023-02-13T01:41:49;6.80;99.90
48998;DHT22;34807;51.456;7.244;2023-02-13T01:46:59;6.80;99.90
48998;DHT22;34807;51.456;7.244;2023-02-13T01:49:24;6.80;99.90
48998;DHT22;34807;51.456;7.244;2023-02-13T01:51:51;6.80;99.90
48998;DHT22;34807;51.456;7.244;2023-02-13T01:54:18;6.80;99.90
48998;DHT22;34807;51.456;7.244;2023-02-13T01:56:51;6.80;99.90
48998;DHT22;34807;51.456;7.244;2023-02-13T01:59:27;6.80;99.90
48998;DHT22;34807;51.456;7.244;2023-02-13T02:01:53;6.80;99.90
48998;DHT22;34807;51.456;7.244;2023-02-13T02:04:31;6.80;99.90
48998;DHT22;34807;51.456;7.244;2023-02-13T02:06:59;6.80;99.90
48998;DHT22;34807;51.456;7.244;2023-02-13T02:09:27;6.80;99.90
48998;DHT22;34807;51.456;7.244;2023-02-13T02:14:19;6.80;99.90
48998;DHT22;34807;51.456;7.244;2023-02-13T02:16:45;6.80;99.90
48998;DHT22;34807;51.456;7.244;2023-02-13T02:19:18;6.80;99.90
48998;DHT22;34807;51.456;7.244;2023-02-13T02:42:42;6.80;99.90
48998;DHT22;34807;51.456;7.244;2023-02-13T02:45:22;6.70;99.90
48998;DHT22;34807;51.456;7.244;2023-02-13T02:50:41;6.70;99.90
48998;DHT22;34807;51.456;7.244;2023-02-13T02:53:20;6.80;99.90
48998;DHT22;34807;51.456;7.244;2023-02-13T02:55:49;6.70;99.90
48998;DHT22;34807;51.456;7.244;2023-02-13T03:01:01;6.70;99.90
48998;DHT22;34807;51.456;7.244;2023-02-13T03:03:45;6.70;99.90
48998;DHT22;34807;51.456;7.244;2023-02-13T03:06:38;6.70;99.90
48998;DHT22;34807;51.456;7.244;2023-02-13T03:09:05;6.70;99.90
48998;DHT22;34807;51.456;7.244;2023-02-13T03:11:52;6.70;99.90
48998;DHT22;34807;51.456;7.244;2023-02-13T03:14:38;6.70;99.90
48998;DHT22;34807;51.456;7.244;2023-02-13T03:17:03;6.70;99.90
48998;DHT22;34807;51.456;7.244;2023-02-13T03:19:56;6.70;99.90
48998;DHT22;34807;51.456;7.244;2023-02-13T03:22:49;6.70;99.90
48998;DHT22;34807;51.456;7.244;2023-02-13T03:25:25;6.70;99.90
48998;DHT22;34807;51.456;7.244;2023-02-13T03:28:00;6.70;99.90
48998;DHT22;34807;51.456;7.244;2023-02-13T03:38:51;6.70;99.90
48998;DHT22;34807;51.456;7.244;2023-02-13T03:42:03;6.70;99.90
48998;DHT22;34807;51.456;7.244;2023-02-13T03:44:30;6.70;99.90
48998;DHT22;34807;51.456;7.244;2023-02-13T03:46:54;6.60;99.90
48998;DHT22;34807;51.456;7.244;2023-02-13T03:49:22;6.60;99.90
48998;DHT22;34807;51.456;7.244;2023-02-13T03:54:41;6.60;99.90
48998;DHT22;34807;51.456;7.244;2023-02-13T03:57:26;6.60;99.90
48998;DHT22;34807;51.456;7.244;2023-02-13T04:00:11;6.60;99.90
48998;DHT22;34807;51.456;7.244;2023-02-13T04:02:40;6.60;99.90
48998;DHT22;34807;51.456;7.244;2023-02-13T04:05:12;6.60;99.90
48998;DHT22;34807;51.456;7.244;2023-02-13T04:07:39;6.60;99.90
48998;DHT22;34807;51.456;7.244;2023-02-13T04:10:05;6.60;99.90
48998;DHT22;34807;51.456;7.244;2023-02-13T04:12:36;6.60;99.90
48998;DHT22;34807;51.456;7.244;2023-02-13T04:17:32;6.60;99.90
48998;DHT22;34807;51.456;7.244;2023-02-13T04:19:59;6.60;99.90
48998;DHT22;34807;51.456;7.244;2023-02-13T04:22:24;6.60;99.90
48998;DHT22;34807;51.456;7.244;2023-02-13T04:24:50;6.60;99.90
48998;DHT22;34807;51.456;7.244;2023-02-13T04:27:16;6.60;99.90
48998;DHT22;34807;51.456;7.244;2023-02-13T04:29:41;6.60;99.90
48998;DHT22;34807;51.456;7.244;2023-02-13T04:32:08;6.60;99.90
48998;DHT22;34807;51.456;7.244;2023-02-13T04:34:34;6.60;99.90
48998;DHT22;34807;51.456;7.244;2023-02-13T04:36:59;6.50;99.90
48998;DHT22;34807;51.456;7.244;2023-02-13T04:39:25;6.60;99.90
48998;DHT22;34807;51.456;7.244;2023-02-13T04:41:50;6.60;99.90
48998;DHT22;34807;51.456;7.244;2023-02-13T04:44:16;6.50;99.90
48998;DHT22;34807;51.456;7.244;2023-02-13T04:46:41;6.60;99.90
48998;DHT22;34807;51.456;7.244;2023-02-13T04:49:07;6.50;99.90
48998;DHT22;34807;51.456;7.244;2023-02-13T04:51:32;6.50;99.90
48998;DHT22;34807;51.456;7.244;2023-02-13T04:53:57;6.50;99.90
48998;DHT22;34807;51.456;7.244;2023-02-13T04:56:23;6.50;99.90
48998;DHT22;34807;51.456;7.244;2023-02-13T04:58:48;6.60;99.90
48998;DHT22;34807;51.456;7.244;2023-02-13T05:01:15;6.50;99.90
48998;DHT22;34807;51.456;7.244;2023-02-13T05:03:40;6.50;99.90
48998;DHT22;34807;51.456;7.244;2023-02-13T05:06:06;6.50;99.90
48998;DHT22;34807;51.456;7.244;2023-02-13T05:08:32;6.50;99.90
48998;DHT22;34807;51.456;7.244;2023-02-13T05:10:57;6.50;99.90
48998;DHT22;34807;51.456;7.244;2023-02-13T05:13:23;6.50;99.90
48998;DHT22;34807;51.456;7.244;2023-02-13T05:15:48;6.50;99.90
48998;DHT22;34807;51.456;7.244;2023-02-13T05:18:14;6.50;99.90
48998;DHT22;34807;51.456;7.244;2023-02-13T05:20:41;6.50;99.90
48998;DHT22;34807;51.456;7.244;2023-02-13T05:23:07;6.50;99.90
48998;DHT22;34807;51.456;7.244;2023-02-13T05:25:49;6.50;99.90
48998;DHT22;34807;51.456;7.244;2023-02-13T05:28:15;6.50;99.90
48998;DHT22;34807;51.456;7.244;2023-02-13T05:30:59;6.50;99.90
48998;DHT22;34807;51.456;7.244;2023-02-13T05:33:24;6.50;99.90
48998;DHT22;34807;51.456;7.244;2023-02-13T05:35:50;6.50;99.90
48998;DHT22;34807;51.456;7.244;2023-02-13T05:38:15;6.50;99.90
48998;DHT22;34807;51.456;7.244;2023-02-13T05:40:41;6.50;99.90
48998;DHT22;34807;51.456;7.244;2023-02-13T05:43:06;6.50;99.90
48998;DHT22;34807;51.456;7.244;2023-02-13T05:45:32;6.50;99.90
48998;DHT22;34807;51.456;7.244;2023-02-13T05:47:57;6.50;99.90
48998;DHT22;34807;51.456;7.244;2023-02-13T05:50:23;6.50;99.90
48998;DHT22;34807;51.456;7.244;2023-02-13T05:52:48;6.50;99.90
48998;DHT22;34807;51.456;7.244;2023-02-13T05:55:14;6.50;99.90
48998;DHT22;34807;51.456;7.244;2023-02-13T05:57:39;6.40;99.90
48998;DHT22;34807;51.456;7.244;2023-02-13T06:00:05;6.40;99.90
48998;DHT22;34807;51.456;7.244;2023-02-13T06:02:30;6.50;99.90
48998;DHT22;34807;51.456;7.244;2023-02-13T06:04:56;6.40;99.90
48998;DHT22;34807;51.456;7.244;2023-02-13T06:07:21;6.40;99.90
48998;DHT22;34807;51.456;7.244;2023-02-13T06:09:47;6.40;99.90
48998;DHT22;34807;51.456;7.244;2023-02-13T06:12:12;6.40;99.90
48998;DHT22;34807;51.456;7.244;2023-02-13T06:14:38;6.40;99.90
48998;DHT22;34807;51.456;7.244;2023-02-13T06:17:03;6.40;99.90
48998;DHT22;34807;51.456;7.244;2023-02-13T06:19:29;6.40;99.90
48998;DHT22;34807;51.456;7.244;2023-02-13T06:21:54;6.40;99.90
48998;DHT22;34807;51.456;7.244;2023-02-13T06:24:20;6.40;99.90
48998;DHT22;34807;51.456;7.244;2023-02-13T06:26:45;6.30;99.90
48998;DHT22;34807;51.456;7.244;2023-02-13T06:29:11;6.30;99.90
48998;DHT22;34807;51.456;7.244;2023-02-13T06:31:37;6.30;99.90
48998;DHT22;34807;51.456;7.244;2023-02-13T06:34:02;6.30;99.90
48998;DHT22;34807;51.456;7.244;2023-02-13T06:36:28;6.20;99.90
48998;DHT22;34807;51.456;7.244;2023-02-13T06:38:54;6.20;99.90
48998;DHT22;34807;51.456;7.244;2023-02-13T06:41:19;6.20;99.90
48998;DHT22;34807;51.456;7.244;2023-02-13T06:43:44;6.20;99.90
48998;DHT22;34807;51.456;7.244;2023-02-13T06:46:10;6.10;99.90
48998;DHT22;34807;51.456;7.244;2023-02-13T06:48:36;6.10;99.90
48998;DHT22;34807;51.456;7.244;2023-02-13T06:51:01;6.10;99.90
48998;DHT22;34807;51.456;7.244;2023-02-13T06:53:27;6.10;99.90
48998;DHT22;34807;51.456;7.244;2023-02-13T06:55:53;6.00;99.90
48998;DHT22;34807;51.456;7.244;2023-02-13T06:58:19;6.10;99.90
48998;DHT22;34807;51.456;7.244;2023-02-13T07:00:45;6.00;99.90
48998;DHT22;34807;51.456;7.244;2023-02-13T07:03:11;6.00;99.90
48998;DHT22;34807;51.456;7.244;2023-02-13T07:05:39;6.00;99.90
48998;DHT22;34807;51.456;7.244;2023-02-13T07:08:06;5.90;99.90
48998;DHT22;34807;51.456;7.244;2023-02-13T07:10:31;5.90;99.90
48998;DHT22;34807;51.456;7.244;2023-02-13T07:12:57;5.90;99.90
48998;DHT22;34807;51.456;7.244;2023-02-13T07:15:22;5.90;99.90
48998;DHT22;34807;51.456;7.244;2023-02-13T07:17:48;5.90;99.90
48998;DHT22;34807;51.456;7.244;2023-02-13T07:20:19;5.80;99.90
48998;DHT22;34807;51.456;7.244;2023-02-13T07:22:44;5.90;99.90
48998;DHT22;34807;51.456;7.244;2023-02-13T07:25:10;5.80;99.90
48998;DHT22;34807;51.456;7.244;2023-02-13T07:27:35;5.80;99.90
48998;DHT22;34807;51.456;7.244;2023-02-13T07:30:01;5.80;99.90
48998;DHT22;34807;51.456;7.244;2023-02-13T07:32:26;5.80;99.90
48998;DHT22;34807;51.456;7.244;2023-02-13T07:34:52;5.80;99.90
48998;DHT22;34807;51.456;7.244;2023-02-13T07:37:17;5.80;99.90
48998;DHT22;34807;51.456;7.244;2023-02-13T07:39:43;5.80;99.90
48998;DHT22;34807;51.456;7.244;2023-02-13T07:42:08;5.80;99.90
48998;DHT22;34807;51.456;7.244;2023-02-13T07:44:34;5.70;99.90
48998;DHT22;34807;51.456;7.244;2023-02-13T07:46:59;5.80;99.90
48998;DHT22;34807;51.456;7.244;2023-02-13T07:49:25;5.70;99.90
48998;DHT22;34807;51.456;7.244;2023-02-13T07:51:50;5.70;99.90
48998;DHT22;34807;51.456;7.244;2023-02-13T07:54:16;5.70;99.90
48998;DHT22;34807;51.456;7.244;2023-02-13T07:56:41;5.70;99.90
48998;DHT22;34807;51.456;7.244;2023-02-13T07:59:07;5.70;99.90
48998;DHT22;34807;51.456;7.244;2023-02-13T08:01:32;5.70;99.90
48998;DHT22;34807;51.456;7.244;2023-02-13T08:03:58;5.70;99.90
48998;DHT22;34807;51.456;7.244;2023-02-13T08:06:23;5.70;99.90
48998;DHT22;34807;51.456;7.244;2023-02-13T08:08:49;5.70;99.90
48998;DHT22;34807;51.456;7.244;2023-02-13T08:11:34;5.70;99.90
48998;DHT22;34807;51.456;7.244;2023-02-13T08:14:21;5.70;99.90
48998;DHT22;34807;51.456;7.244;2023-02-13T08:16:47;5.70;99.90
48998;DHT22;34807;51.456;7.244;2023-02-13T08:19:13;5.70;99.90
48998;DHT22;34807;51.456;7.244;2023-02-13T08:21:38;5.70;99.90
48998;DHT22;34807;51.456;7.244;2023-02-13T08:24:05;5.70;99.90
48998;DHT22;34807;51.456;7.244;2023-02-13T08:26:31;5.70;99.90
48998;DHT22;34807;51.456;7.244;2023-02-13T08:28:56;5.70;99.90
48998;DHT22;34807;51.456;7.244;2023-02-13T08:31:22;5.70;99.90
48998;DHT22;34807;51.456;7.244;2023-02-13T08:33:47;5.70;99.90
48998;DHT22;34807;51.456;7.244;2023-02-13T08:36:13;5.70;99.90
48998;DHT22;34807;51.456;7.244;2023-02-13T08:38:38;5.70;99.90
48998;DHT22;34807;51.456;7.244;2023-02-13T08:41:04;5.70;99.90
48998;DHT22;34807;51.456;7.244;2023-02-13T08:43:29;5.70;99.90
48998;DHT22;34807;51.456;7.244;2023-02-13T08:45:58;5.70;99.90
48998;DHT22;34807;51.456;7.244;2023-02-13T08:48:24;5.70;99.90
48998;DHT22;34807;51.456;7.244;2023-02-13T08:50:50;5.70;99.90
48998;DHT22;34807;51.456;7.244;2023-02-13T08:53:15;5.70;99.90
48998;DHT22;34807;51.456;7.244;2023-02-13T08:55:41;5.70;99.90
48998;DHT22;34807;51.456;7.244;2023-02-13T08:58:06;5.80;99.90
48998;DHT22;34807;51.456;7.244;2023-02-13T09:00:31;5.80;99.90
48998;DHT22;34807;51.456;7.244;2023-02-13T09:03:00;5.80;99.90
48998;DHT22;34807;51.456;7.244;2023-02-13T09:05:27;5.80;99.90
48998;DHT22;34807;51.456;7.244;2023-02-13T09:07:53;5.80;99.90
48998;DHT22;34807;51.456;7.244;2023-02-13T09:10:18;5.80;99.90
48998;DHT22;34807;51.456;7.244;2023-02-13T09:12:44;5.80;99.90
48998;DHT22;34807;51.456;7.244;2023-02-13T09:15:15;5.80;99.90
48998;DHT22;34807;51.456;7.244;2023-02-13T09:17:41;5.80;99.90
48998;DHT22;34807;51.456;7.244;2023-02-13T09:20:06;5.90;99.90
48998;DHT22;34807;51.456;7.244;2023-02-13T09:22:32;5.90;99.90
48998;DHT22;34807;51.456;7.244;2023-02-13T09:24:57;5.90;99.90
48998;DHT22;34807;51.456;7.244;2023-02-13T09:27:25;5.90;99.90
48998;DHT22;34807;51.456;7.244;2023-02-13T09:29:50;5.90;99.90
48998;DHT22;34807;51.456;7.244;2023-02-13T09:32:16;5.90;99.90
48998;DHT22;34807;51.456;7.244;2023-02-13T09:34:42;6.00;99.90
48998;DHT22;34807;51.456;7.244;2023-02-13T09:37:07;6.00;99.90
48998;DHT22;34807;51.456;7.244;2023-02-13T09:39:33;6.00;99.90
48998;DHT22;34807;51.456;7.244;2023-02-13T09:41:58;6.00;99.90
48998;DHT22;34807;51.456;7.244;2023-02-13T09:44:38;6.10;99.90
48998;DHT22;34807;51.456;7.244;2023-02-13T09:49:40;6.10;99.90
48998;DHT22;34807;51.456;7.244;2023-02-13T09:52:08;6.10;99.90
48998;DHT22;34807;51.456;7.244;2023-02-13T09:54:34;6.10;99.90
48998;DHT22;34807;51.456;7.244;2023-02-13T09:57:01;6.20;99.90
48998;DHT22;34807;51.456;7.244;2023-02-13T10:02:09;6.20;99.90
48998;DHT22;34807;51.456;7.244;2023-02-13T10:07:43;6.20;99.90
48998;DHT22;34807;51.456;7.244;2023-02-13T10:10:19;6.30;99.90
48998;DHT22;34807;51.456;7.244;2023-02-13T10:18:11;6.30;99.90
48998;DHT22;34807;51.456;7.244;2023-02-13T10:20:44;6.30;99.90
48998;DHT22;34807;51.456;7.244;2023-02-13T10:26:01;6.40;99.90
48998;DHT22;34807;51.456;7.244;2023-02-13T10:31:29;6.40;99.90
48998;DHT22;34807;51.456;7.244;2023-02-13T10:33:52;6.40;99.90
48998;DHT22;34807;51.456;7.244;2023-02-13T10:36:26;6.50;99.90
48998;DHT22;34807;51.456;7.244;2023-02-13T10:38:58;6.50;99.90
48998;DHT22;34807;51.456;7.244;2023-02-13T10:48:59;6.60;99.90
48998;DHT22;34807;51.456;7.244;2023-02-13T10:51:41;6.60;99.90
48998;DHT22;34807;51.456;7.244;2023-02-13T11:02:12;6.70;99.90
48998;DHT22;34807;51.456;7.244;2023-02-13T11:04:44;6.80;99.90
48998;DHT22;34807;51.456;7.244;2023-02-13T11:07:11;6.80;99.90
48998;DHT22;34807;51.456;7.244;2023-02-13T11:09:39;6.90;99.90
48998;DHT22;34807;51.456;7.244;2023-02-13T11:12:26;6.90;99.90
48998;DHT22;34807;51.456;7.244;2023-02-13T11:17:20;7.00;99.90
48998;DHT22;34807;51.456;7.244;2023-02-13T11:19:57;7.10;99.90
48998;DHT22;34807;51.456;7.244;2023-02-13T11:24:56;7.20;99.90
48998;DHT22;34807;51.456;7.244;2023-02-13T11:27:23;7.30;99.90
48998;DHT22;34807;51.456;7.244;2023-02-13T11:29:57;7.30;99.90
48998;DHT22;34807;51.456;7.244;2023-02-13T11:32:25;7.40;99.90
48998;DHT22;34807;51.456;7.244;2023-02-13T11:34:50;7.50;99.90
48998;DHT22;34807;51.456;7.244;2023-02-13T11:37:23;7.50;99.90
48998;DHT22;34807;51.456;7.244;2023-02-13T11:39:50;7.60;99.90
48998;DHT22;34807;51.456;7.244;2023-02-13T11:42:22;7.70;99.90
48998;DHT22;34807;51.456;7.244;2023-02-13T11:44:50;7.70;99.90
48998;DHT22;34807;51.456;7.244;2023-02-13T11:47:16;7.80;99.90
48998;DHT22;34807;51.456;7.244;2023-02-13T11:49:53;7.90;99.90
48998;DHT22;34807;51.456;7.244;2023-02-13T11:52:22;7.90;99.90
48998;DHT22;34807;51.456;7.244;2023-02-13T11:54:54;8.00;99.90
48998;DHT22;34807;51.456;7.244;2023-02-13T11:57:21;8.10;99.90
48998;DHT22;34807;51.456;7.244;2023-02-13T11:59:48;8.10;99.90
48998;DHT22;34807;51.456;7.244;2023-02-13T12:04:49;8.30;99.90
48998;DHT22;34807;51.456;7.244;2023-02-13T12:07:16;8.40;99.90
48998;DHT22;34807;51.456;7.244;2023-02-13T12:09:43;8.40;99.90
48998;DHT22;34807;51.456;7.244;2023-02-13T12:12:15;8.50;99.90
48998;DHT22;34807;51.456;7.244;2023-02-13T12:14:42;8.50;99.90
48998;DHT22;34807;51.456;7.244;2023-02-13T12:17:13;8.60;99.90
48998;DHT22;34807;51.456;7.244;2023-02-13T12:22:22;8.70;99.90
48998;DHT22;34807;51.456;7.244;2023-02-13T12:27:30;8.90;99.90
48998;DHT22;34807;51.456;7.244;2023-02-13T12:30:14;9.00;99.90
48998;DHT22;34807;51.456;7.244;2023-02-13T12:32:55;9.00;99.90
48998;DHT22;34807;51.456;7.244;2023-02-13T12:35:34;9.00;99.90
48998;DHT22;34807;51.456;7.244;2023-02-13T12:38:10;9.10;99.90
48998;DHT22;34807;51.456;7.244;2023-02-13T12:46:03;9.30;99.90
48998;DHT22;34807;51.456;7.244;2023-02-13T12:53:27;9.50;99.90
48998;DHT22;34807;51.456;7.244;2023-02-13T12:56:06;9.50;99.90
48998;DHT22;34807;51.456;7.244;2023-02-13T13:08:35;9.80;99.90
48998;DHT22;34807;51.456;7.244;2023-02-13T13:11:17;9.80;99.90
48998;DHT22;34807;51.456;7.244;2023-02-13T13:16:22;9.90;99.90
48998;DHT22;34807;51.456;7.244;2023-02-13T13:18:57;9.90;99.90
48998;DHT22;34807;51.456;7.244;2023-02-13T13:26:30;10.10;99.90
48998;DHT22;34807;51.456;7.244;2023-02-13T13:28:58;10.10;99.90
48998;DHT22;34807;51.456;7.244;2023-02-13T13:31:25;10.20;99.90
48998;DHT22;34807;51.456;7.244;2023-02-13T13:33:52;10.20;99.90
48998;DHT22;34807;51.456;7.244;2023-02-13T13:44:00;10.30;99.90
48998;DHT22;34807;51.456;7.244;2023-02-13T13:46:30;10.30;99.90
48998;DHT22;34807;51.456;7.244;2023-02-13T13:51:24;10.40;99.90
48998;DHT22;34807;51.456;7.244;2023-02-13T13:54:34;10.40;99.90
48998;DHT22;34807;51.456;7.244;2023-02-13T14:07:25;10.50;99.90
48998;DHT22;34807;51.456;7.244;2023-02-13T14:09:51;10.50;99.90
48998;DHT22;34807;51.456;7.244;2023-02-13T14:14:54;10.50;99.90
48998;DHT22;34807;51.456;7.244;2023-02-13T14:20:15;10.50;99.90
48998;DHT22;34807;51.456;7.244;2023-02-13T14:22:42;10.60;99.90
48998;DHT22;34807;51.456;7.244;2023-02-13T14:25:19;10.60;99.90
48998;DHT22;34807;51.456;7.244;2023-02-13T14:27:50;10.60;99.90
48998;DHT22;34807;51.456;7.244;2023-02-13T14:30:29;10.60;99.90
48998;DHT22;34807;51.456;7.244;2023-02-13T14:32:55;10.60;99.90
48998;DHT22;34807;51.456;7.244;2023-02-13T14:35:31;10.60;99.90
48998;DHT22;34807;51.456;7.244;2023-02-13T14:37:58;10.60;99.90
48998;DHT22;34807;51.456;7.244;2023-02-13T14:40:32;10.50;99.90
48998;DHT22;34807;51.456;7.244;2023-02-13T14:45:33;10.50;99.90
48998;DHT22;34807;51.456;7.244;2023-02-13T14:48:04;10.50;99.90
48998;DHT22;34807;51.456;7.244;2023-02-13T14:52:59;10.50;99.90
48998;DHT22;34807;51.456;7.244;2023-02-13T14:57:56;10.40;99.90
48998;DHT22;34807;51.456;7.244;2023-02-13T15:00:25;10.40;99.90
48998;DHT22;34807;51.456;7.244;2023-02-13T15:02:57;10.40;99.90
48998;DHT22;34807;51.456;7.244;2023-02-13T15:05:26;10.40;99.90
48998;DHT22;34807;51.456;7.244;2023-02-13T15:07:58;10.40;99.90
48998;DHT22;34807;51.456;7.244;2023-02-13T15:12:56;10.30;99.90
48998;DHT22;34807;51.456;7.244;2023-02-13T15:15:23;10.30;99.90
48998;DHT22;34807;51.456;7.244;2023-02-13T15:17:49;10.30;99.90
48998;DHT22;34807;51.456;7.244;2023-02-13T15:20:25;10.20;99.90
48998;DHT22;34807;51.456;7.244;2023-02-13T15:22:51;10.20;99.90
48998;DHT22;34807;51.456;7.244;2023-02-13T15:25:36;10.20;99.90
48998;DHT22;34807;51.456;7.244;2023-02-13T15:28:03;10.20;99.90
48998;DHT22;34807;51.456;7.244;2023-02-13T15:30:33;10.20;99.90
48998;DHT22;34807;51.456;7.244;2023-02-13T15:33:19;10.10;99.90
48998;DHT22;34807;51.456;7.244;2023-02-13T15:35:45;10.10;99.90
48998;DHT22;34807;51.456;7.244;2023-02-13T15:40:52;10.00;99.90
48998;DHT22;34807;51.456;7.244;2023-02-13T15:43:22;9.90;99.90
48998;DHT22;34807;51.456;7.244;2023-02-13T15:45:49;9.90;99.90
48998;DHT22;34807;51.456;7.244;2023-02-13T15:48:15;9.90;99.90
48998;DHT22;34807;51.456;7.244;2023-02-13T15:50:41;9.90;99.90
48998;DHT22;34807;51.456;7.244;2023-02-13T15:53:08;9.80;99.90
48998;DHT22;34807;51.456;7.244;2023-02-13T15:55:35;9.80;99.90
48998;DHT22;34807;51.456;7.244;2023-02-13T15:58:02;9.80;99.90
48998;DHT22;34807;51.456;7.244;2023-02-13T16:00:32;9.80;99.90
48998;DHT22;34807;51.456;7.244;2023-02-13T16:02:59;9.70;99.90
48998;DHT22;34807;51.456;7.244;2023-02-13T16:05:26;9.70;99.90
48998;DHT22;34807;51.456;7.244;2023-02-13T16:07:56;9.70;99.90
48998;DHT22;34807;51.456;7.244;2023-02-13T16:10:29;9.60;99.90
48998;DHT22;34807;51.456;7.244;2023-02-13T16:13:03;9.60;99.90
48998;DHT22;34807;51.456;7.244;2023-02-13T16:15:30;9.50;99.90
48998;DHT22;34807;51.456;7.244;2023-02-13T16:17:56;9.50;99.90
48998;DHT22;34807;51.456;7.244;2023-02-13T16:20:23;9.50;99.90
48998;DHT22;34807;51.456;7.244;2023-02-13T16:23:00;9.40;99.90
48998;DHT22;34807;51.456;7.244;2023-02-13T16:25:27;9.40;99.90
48998;DHT22;34807;51.456;7.244;2023-02-13T16:27:58;9.30;99.90
48998;DHT22;34807;51.456;7.244;2023-02-13T16:30:26;9.30;99.90
48998;DHT22;34807;51.456;7.244;2023-02-13T16:33:07;9.20;99.90
48998;DHT22;34807;51.456;7.244;2023-02-13T16:35:33;9.20;99.90
48998;DHT22;34807;51.456;7.244;2023-02-13T16:38:00;9.20;99.90
48998;DHT22;34807;51.456;7.244;2023-02-13T16:45:46;9.10;99.90
48998;DHT22;34807;51.456;7.244;2023-02-13T16:48:15;9.00;99.90
48998;DHT22;34807;51.456;7.244;2023-02-13T16:50:40;8.90;99.90
48998;DHT22;34807;51.456;7.244;2023-02-13T16:53:06;8.90;99.90
48998;DHT22;34807;51.456;7.244;2023-02-13T16:55:32;8.90;99.90
48998;DHT22;34807;51.456;7.244;2023-02-13T16:58:01;8.90;99.90
48998;DHT22;34807;51.456;7.244;2023-02-13T17:00:27;8.80;99.90
48998;DHT22;34807;51.456;7.244;2023-02-13T17:02:53;8.80;99.90
48998;DHT22;34807;51.456;7.244;2023-02-13T17:05:20;8.80;99.90
48998;DHT22;34807;51.456;7.244;2023-02-13T17:07:47;8.70;99.90
48998;DHT22;34807;51.456;7.244;2023-02-13T17:12:45;8.60;99.90
48998;DHT22;34807;51.456;7.244;2023-02-13T17:15:11;8.60;99.90
48998;DHT22;34807;51.456;7.244;2023-02-13T17:17:38;8.60;99.90
48998;DHT22;34807;51.456;7.244;2023-02-13T17:20:04;8.50;99.90
48998;DHT22;34807;51.456;7.244;2023-02-13T17:22:30;8.50;99.90
48998;DHT22;34807;51.456;7.244;2023-02-13T17:24:58;8.50;99.90
48998;DHT22;34807;51.456;7.244;2023-02-13T17:27:23;8.40;99.90
48998;DHT22;34807;51.456;7.244;2023-02-13T17:29:49;8.40;99.90
48998;DHT22;34807;51.456;7.244;2023-02-13T17:32:21;8.40;99.90
48998;DHT22;34807;51.456;7.244;2023-02-13T17:34:49;8.30;99.90
48998;DHT22;34807;51.456;7.244;2023-02-13T17:37:15;8.30;99.90
48998;DHT22;34807;51.456;7.244;2023-02-13T17:39:41;8.20;99.90
48998;DHT22;34807;51.456;7.244;2023-02-13T17:42:08;8.20;99.90
48998;DHT22;34807;51.456;7.244;2023-02-13T17:44:37;8.20;99.90
48998;DHT22;34807;51.456;7.244;2023-02-13T17:47:02;8.10;99.90
48998;DHT22;34807;51.456;7.244;2023-02-13T17:49:28;8.10;99.90
48998;DHT22;34807;51.456;7.244;2023-02-13T17:51:53;8.10;99.90
48998;DHT22;34807;51.456;7.244;2023-02-13T17:54:19;8.10;99.90
48998;DHT22;34807;51.456;7.244;2023-02-13T17:56:44;8.00;99.90
48998;DHT22;34807;51.456;7.244;2023-02-13T17:59:10;8.00;99.90
48998;DHT22;34807;51.456;7.244;2023-02-13T18:01:35;8.00;99.90
48998;DHT22;34807;51.456;7.244;2023-02-13T18:04:01;7.90;99.90
48998;DHT22;34807;51.456;7.244;2023-02-13T18:06:26;7.90;99.90
48998;DHT22;34807;51.456;7.244;2023-02-13T18:08:52;7.90;99.90
48998;DHT22;34807;51.456;7.244;2023-02-13T18:11:17;7.90;99.90
48998;DHT22;34807;51.456;7.244;2023-02-13T18:13:43;7.80;99.90
48998;DHT22;34807;51.456;7.244;2023-02-13T18:16:12;7.80;99.90
48998;DHT22;34807;51.456;7.244;2023-02-13T18:18:37;7.80;99.90
48998;DHT22;34807;51.456;7.244;2023-02-13T18:21:03;7.70;99.90
48998;DHT22;34807;51.456;7.244;2023-02-13T18:23:28;7.70;99.90
48998;DHT22;34807;51.456;7.244;2023-02-13T18:26:02;7.70;99.90
48998;DHT22;34807;51.456;7.244;2023-02-13T18:28:27;7.60;99.90
48998;DHT22;34807;51.456;7.244;2023-02-13T18:30:53;7.60;99.90
48998;DHT22;34807;51.456;7.244;2023-02-13T18:33:19;7.60;99.90
48998;DHT22;34807;51.456;7.244;2023-02-13T18:35:44;7.60;99.90
48998;DHT22;34807;51.456;7.244;2023-02-13T18:38:10;7.50;99.90
48998;DHT22;34807;51.456;7.244;2023-02-13T18:40:35;7.50;99.90